Главная страница
METAR-TAF:

METAR-TAF

Аэропорты :

Яп

Острова Яп, Микронезия

широта: 09-29N, долгота: 138-05E, высота над уровнем моря: 28 м

Текущие метеонаблюдения

Эта сводка был подготовлена 15 минут назад, в 04:52 UTC
Ветер 14 Узел от восточный с порывами до 19 Узел
Температура 32°C
Влажность 67%
Давление 1008 hPa
Видимость: 19.3 км
небольшая облачность на высоте 1700 фута
Отдельные облака на высоте 30000 фута

METAR: PTYA 170452Z 09014G19KT 12SM FEW017 SCT300 32/25 A2976 RMK SLP078 T03150252

Время: 15:07 (05:07 UTC)

Прогноз

Эта сводка был подготовлена 5 часа и 47 минут назад, в 23:20 UTC
Прогноз действительный с 17-го 00 UTC до 17-го 24 UTC
Ветер 10 Узел от восточный
Видимость: 10 км
Отдельные облака на высоте 1600 фута
Отдельные облака на высоте 13000 фута
ливни в окрестностях,

TAF: PTYA 162320Z 1700/1724 08010KT P6SM VCSH SCT016 SCT130

Метеонаблюдения и прогнозы для более 4000 аэропортов (сводки METAR и TAF).

Имеющиеся станции представлены на карте желтыми и красными точками.

Чтобы увидеть название станции, наведите на нее мышь.

Затем щелкните, чтобы увидеть метеонаблюдения и метеопрогнозы.

Управление картой: чтобы увеличить масштаб, щелкните зеленые кнопки с черным крестиком; чтобы уменьшить масштаб, щелкните зеленую кнопку с тире; для просмотра соседних карт щелкайте зеленые стрелки.


METAR-TAF: